Time;durP1;ratioP1;P1;durP2;ratioP2;P2;SDS_P1;SDS_P2;PMS_P1;PMS_P2;Temp;Humidity;BMP_temperature;BMP_pressure;BME280_temperature;BME280_humidity;BME280_pressure;Samples;Min_cycle;Max_cycle;Signal;HPM_P1;HPM_P2
2022/06/11 00:09:20;;;;;;;7.70;3.40;;;28.40;26.40;;;;;;20834955;28;20446;-59
2022/06/11 00:19:22;;;;;;;5.60;2.40;;;28.50;26.10;;;;;;20834148;28;20056;-60
2022/06/11 00:29:27;;;;;;;4.93;2.05;;;28.50;26.10;;;;;;20833302;28;20382;-59
2022/06/11 00:39:31;;;;;;;6.07;2.33;;;28.40;26.60;;;;;;20831757;28;20053;-61
2022/06/11 00:49:55;;;;;;;5.15;2.25;;;28.30;27.20;;;;;;20832279;28;20046;-60
2022/06/11 01:00:05;;;;;;;5.90;2.75;;;28.30;29.00;;;;;;20830627;28;20061;-60
2022/06/11 01:10:16;;;;;;;6.70;2.83;;;28.20;32.20;;;;;;20831809;28;20050;-59
2022/06/11 01:20:45;;;;;;;8.93;2.47;;;28.10;35.50;;;;;;20830276;28;20058;-59
2022/06/11 01:30:55;;;;;;;9.68;2.38;;;27.90;38.20;;;;;;20830733;28;20052;-59
2022/06/11 01:41:18;;;;;;;11.90;2.40;;;27.60;40.40;;;;;;20829010;28;20100;-59
2022/06/11 01:51:32;;;;;;;7.53;2.80;;;27.60;41.20;;;;;;20831318;28;20077;-59
2022/06/11 02:01:44;;;;;;;6.70;2.85;;;27.40;41.70;;;;;;20844622;28;20144;-59
2022/06/11 02:11:54;;;;;;;6.43;2.83;;;27.40;42.30;;;;;;20843699;28;20054;-59
2022/06/11 02:22:05;;;;;;;6.90;2.45;;;27.10;42.60;;;;;;20843651;28;20156;-59
2022/06/11 02:32:13;;;;;;;5.53;2.20;;;27.00;42.60;;;;;;20841799;28;20225;-59
2022/06/11 02:42:18;;;;;;;7.22;2.50;;;26.80;42.90;;;;;;20841494;28;20136;-59
2022/06/11 02:52:22;;;;;;;8.15;2.70;;;26.60;43.00;;;;;;20840739;28;20049;-59
2022/06/11 03:02:25;;;;;;;6.40;2.50;;;26.60;43.10;;;;;;20838079;28;20573;-60
2022/06/11 03:12:28;;;;;;;5.25;2.20;;;26.40;43.10;;;;;;20839986;28;20052;-59
2022/06/11 03:22:31;;;;;;;7.20;2.50;;;26.40;43.30;;;;;;20839148;28;20049;-60
2022/06/11 03:32:33;;;;;;;4.70;2.45;;;26.40;42.90;;;;;;20837383;28;20053;-59
2022/06/11 03:42:35;;;;;;;6.38;2.38;;;26.30;42.70;;;;;;20836762;28;20081;-59
2022/06/11 03:52:38;;;;;;;7.85;2.38;;;26.20;42.50;;;;;;20834693;28;20045;-59
2022/06/11 04:02:39;;;;;;;7.35;2.22;;;26.00;41.40;;;;;;20834986;28;20481;-59
2022/06/11 04:12:41;;;;;;;3.92;2.22;;;26.00;40.80;;;;;;20834843;28;20128;-59
2022/06/11 04:22:44;;;;;;;5.40;1.83;;;26.00;40.30;;;;;;20832028;28;20077;-60
2022/06/11 04:32:46;;;;;;;6.47;2.17;;;25.90;39.00;;;;;;20833246;28;20215;-62
2022/06/11 04:42:48;;;;;;;4.68;2.00;;;25.80;37.50;;;;;;20832528;28;20053;-59
2022/06/11 04:52:50;;;;;;;3.45;1.70;;;25.70;35.70;;;;;;20831237;28;20412;-58
2022/06/11 05:02:52;;;;;;;3.65;1.95;;;25.60;34.30;;;;;;20829312;28;20144;-60
2022/06/11 05:12:54;;;;;;;;;;;25.60;34.80;;;;;;20831460;28;20580;-59
2022/06/11 05:22:56;;;;;;;4.40;1.58;;;25.40;35.30;;;;;;20829811;28;19928;-59
2022/06/11 05:33:00;;;;;;;3.35;2.28;;;25.30;36.70;;;;;;20851547;28;20065;-59
2022/06/11 05:43:02;;;;;;;5.05;1.80;;;25.30;37.30;;;;;;20854776;28;20049;-59
2022/06/11 05:53:04;;;;;;;;;;;25.20;38.30;;;;;;20857845;28;20579;-61
2022/06/11 06:03:06;;;;;;;3.63;1.73;;;25.20;38.40;;;;;;20855270;28;20023;-60
2022/06/11 06:23:31;;;;;;;5.45;1.80;;;25.60;38.30;;;;;;20854701;28;20136;-59
2022/06/11 06:33:33;;;;;;;2.97;1.83;;;25.70;39.10;;;;;;20854577;28;20041;-60
2022/06/11 06:43:35;;;;;;;4.05;1.92;;;25.90;39.60;;;;;;20843690;28;20057;-60
2022/06/11 06:53:40;;;;;;;6.82;2.35;;;26.00;40.60;;;;;;20840643;28;20046;-59
2022/06/11 07:03:42;;;;;;;4.03;1.65;;;26.50;40.30;;;;;;20839654;28;20049;-60
2022/06/11 07:13:44;;;;;;;5.25;1.80;;;27.20;39.40;;;;;;20838575;28;20110;-59
2022/06/11 07:24:15;;;;;;;5.43;1.80;;;27.80;38.20;;;;;;20837320;28;20052;-60
2022/06/11 07:34:19;;;;;;;6.82;2.20;;;28.30;37.10;;;;;;20836915;28;20081;-59
2022/06/11 07:44:20;;;;;;;6.20;1.75;;;28.60;36.30;;;;;;20837105;28;20081;-61
2022/06/11 07:54:22;;;;;;;5.30;2.05;;;28.90;35.60;;;;;;20835423;28;20112;-61
2022/06/11 08:04:24;;;;;;;4.90;1.77;;;29.10;35.10;;;;;;20835012;28;20053;-59
2022/06/11 08:14:26;;;;;;;2.95;1.45;;;29.50;34.70;;;;;;20834603;28;20045;-61
2022/06/11 08:24:28;;;;;;;7.28;1.70;;;29.70;34.30;;;;;;20835104;28;20387;-59
2022/06/11 08:34:31;;;;;;;5.18;1.58;;;30.00;33.70;;;;;;20832743;28;20379;-59
2022/06/11 08:44:35;;;;;;;5.43;1.83;;;30.10;33.50;;;;;;20832522;28;20490;-59
2022/06/11 08:54:41;;;;;;;4.32;1.95;;;30.30;32.90;;;;;;20830559;28;20057;-60
2022/06/11 09:05:03;;;;;;;9.18;2.70;;;30.60;32.90;;;;;;20828910;28;20411;-58
2022/06/11 09:15:34;;;;;;;7.43;2.20;;;30.60;32.90;;;;;;20830049;28;20049;-57
2022/06/11 09:26:14;;;;;;;4.20;1.52;;;30.60;32.60;;;;;;20820641;28;20128;-55
2022/06/11 09:36:28;;;;;;;4.83;1.70;;;30.80;32.70;;;;;;20497495;28;20503;-59
2022/06/11 09:46:47;;;;;;;9.43;2.45;;;31.10;32.70;;;;;;20497229;28;20713;-62
2022/06/11 09:57:03;;;;;;;8.30;2.80;;;31.10;32.70;;;;;;20496953;28;20051;-61
2022/06/11 10:07:11;;;;;;;6.45;2.58;;;31.50;32.30;;;;;;20683335;28;20071;-61
2022/06/11 10:17:39;;;;;;;6.70;2.13;;;31.40;32.40;;;;;;20920161;28;20441;-60
2022/06/11 10:27:48;;;;;;;4.63;2.00;;;31.40;31.80;;;;;;20925679;28;20053;-59
2022/06/11 10:38:13;;;;;;;8.20;2.03;;;31.60;31.00;;;;;;20924020;28;20109;-61
2022/06/11 10:48:18;;;;;;;4.65;2.00;;;32.10;30.40;;;;;;20923674;28;20135;-60
2022/06/11 10:58:31;;;;;;;7.45;2.42;;;32.00;30.40;;;;;;20922829;28;20092;-60
2022/06/11 11:08:35;;;;;;;7.65;2.05;;;32.00;30.30;;;;;;20921750;28;20136;-60
2022/06/11 11:19:13;;;;;;;8.25;2.75;;;32.20;29.90;;;;;;20921950;28;20453;-62
2022/06/11 11:29:26;;;;;;;5.65;1.90;;;32.50;29.30;;;;;;20912361;28;20048;-61
2022/06/11 11:39:55;;;;;;;5.63;2.05;;;32.70;28.70;;;;;;20911219;28;20502;-60
2022/06/11 11:50:06;;;;;;;10.20;6.43;;;33.00;29.10;;;;;;20908818;28;20052;-59
2022/06/11 12:00:40;;;;;;;3.22;2.13;;;33.30;28.20;;;;;;20911074;28;20531;-59
2022/06/11 12:10:52;;;;;;;5.18;1.80;;;33.50;27.90;;;;;;20918256;28;20098;-59
2022/06/11 12:21:00;;;;;;;5.28;2.17;;;33.40;27.80;;;;;;20916150;28;20090;-58
2022/06/11 12:31:02;;;;;;;7.65;2.38;;;33.50;28.00;;;;;;20916216;28;20084;-59
2022/06/11 12:41:20;;;;;;;6.60;1.92;;;33.90;27.70;;;;;;20914222;28;20084;-59
2022/06/11 12:51:34;;;;;;;9.80;2.60;;;34.00;27.70;;;;;;20914094;28;20477;-59
2022/06/11 13:02:13;;;;;;;7.07;2.35;;;34.10;27.50;;;;;;20912605;28;20485;-60
2022/06/11 13:12:14;;;;;;;6.17;2.33;;;34.30;27.10;;;;;;20912504;28;20053;-59
2022/06/11 13:22:41;;;;;;;11.00;2.38;;;34.50;27.30;;;;;;20912728;28;20049;-59
2022/06/11 13:33:00;;;;;;;10.63;1.98;;;34.60;27.20;;;;;;20912992;28;20041;-59
2022/06/11 13:43:26;;;;;;;4.68;1.55;;;34.90;26.50;;;;;;20910623;28;20053;-61
2022/06/11 14:04:15;;;;;;;4.25;1.90;;;35.20;25.80;;;;;;20926350;28;20091;-62
2022/06/11 14:14:40;;;;;;;5.43;1.80;;;35.40;25.70;;;;;;20925459;28;20045;-60
2022/06/11 14:24:42;;;;;;;6.22;2.13;;;35.70;24.60;;;;;;20925653;28;20060;-58
2022/06/11 14:35:07;;;;;;;5.32;1.95;;;35.60;24.40;;;;;;20923698;28;20084;-60
2022/06/11 14:45:36;;;;;;;3.72;1.60;;;35.80;24.40;;;;;;20922994;28;20084;-60
2022/06/11 14:55:40;;;;;;;4.00;1.67;;;36.00;23.60;;;;;;20923484;28;20477;-58
2022/06/11 15:06:03;;;;;;;5.20;1.70;;;35.90;23.60;;;;;;20920954;28;20057;-60
2022/06/11 15:16:24;;;;;;;3.33;1.70;;;36.30;23.70;;;;;;20922186;28;20056;-61
2022/06/11 15:26:33;;;;;;;7.00;1.90;;;36.20;23.50;;;;;;20921585;28;20448;-61
2022/06/11 15:36:59;;;;;;;6.47;1.90;;;36.30;23.00;;;;;;20920688;28;20051;-60
2022/06/11 15:47:19;;;;;;;7.28;2.00;;;36.60;23.40;;;;;;20918939;28;20076;-60
2022/06/11 15:57:31;;;;;;;5.60;1.90;;;36.60;23.60;;;;;;20918520;28;20056;-58
2022/06/11 16:07:32;;;;;;;6.97;2.78;;;36.30;24.00;;;;;;20917438;28;20525;-59
2022/06/11 16:17:39;;;;;;;6.13;3.25;;;36.40;23.30;;;;;;20916855;28;20076;-59
2022/06/11 16:27:45;;;;;;;5.40;2.50;;;36.50;23.60;;;;;;20916047;28;20048;-61
2022/06/11 16:37:47;;;;;;;5.18;2.13;;;36.50;23.40;;;;;;20915160;28;20131;-60
2022/06/11 16:47:59;;;;;;;4.30;2.75;;;36.30;23.80;;;;;;20914434;28;20076;-60
2022/06/11 16:58:02;;;;;;;4.28;1.90;;;36.20;23.50;;;;;;20914094;28;20045;-61
2022/06/11 17:08:05;;;;;;;6.20;2.13;;;36.20;23.00;;;;;;20912565;28;20056;-60
2022/06/11 17:18:20;;;;;;;4.32;2.30;;;36.10;22.80;;;;;;20911224;28;20045;-60
2022/06/11 17:28:27;;;;;;;5.22;2.35;;;36.10;22.50;;;;;;20911182;28;20057;-59
2022/06/11 17:38:42;;;;;;;5.97;2.42;;;36.30;22.90;;;;;;20911542;28;20071;-61
2022/06/11 17:48:44;;;;;;;5.40;2.20;;;36.10;22.30;;;;;;20911482;28;20045;-61
2022/06/11 17:58:46;;;;;;;6.47;2.10;;;36.00;22.40;;;;;;20911734;28;20144;-60
2022/06/11 18:09:05;;;;;;;7.63;2.08;;;35.90;21.70;;;;;;20910471;28;20053;-58
2022/06/11 18:19:07;;;;;;;4.70;1.75;;;35.80;22.00;;;;;;20909639;28;20128;-59
2022/06/11 18:29:10;;;;;;;6.30;2.92;;;36.00;21.30;;;;;;20910539;28;20101;-59
2022/06/11 18:39:12;;;;;;;6.78;2.45;;;35.60;21.50;;;;;;20920303;28;20128;-60
2022/06/11 18:49:15;;;;;;;4.60;2.88;;;35.30;21.80;;;;;;20923416;28;20505;-60
2022/06/11 18:59:16;;;;;;;7.70;4.43;;;35.10;21.70;;;;;;20923491;28;20090;-58
2022/06/11 19:09:18;;;;;;;6.30;3.03;;;35.00;22.00;;;;;;20921491;28;20049;-60
2022/06/11 19:19:25;;;;;;;4.68;3.13;;;34.80;21.80;;;;;;20921953;28;20120;-59
2022/06/11 19:29:27;;;;;;;10.35;4.05;;;34.60;21.60;;;;;;20920155;28;20049;-58
2022/06/11 19:39:34;;;;;;;5.10;3.65;;;34.50;21.90;;;;;;20919475;28;20053;-61
2022/06/11 19:49:36;;;;;;;8.82;2.65;;;34.30;22.00;;;;;;20917897;28;20049;-62
2022/06/11 19:59:38;;;;;;;4.40;2.53;;;34.10;22.50;;;;;;20918458;28;20512;-58
2022/06/11 20:09:40;;;;;;;4.07;2.30;;;33.90;22.30;;;;;;20917384;28;20099;-58
2022/06/11 20:19:41;;;;;;;6.57;3.33;;;33.70;22.40;;;;;;20916289;28;20049;-59
2022/06/11 20:29:43;;;;;;;5.13;2.95;;;33.50;22.10;;;;;;20916225;28;20045;-60
2022/06/11 20:39:46;;;;;;;5.78;1.90;;;33.30;22.30;;;;;;20913307;28;20202;-62
2022/06/11 20:49:50;;;;;;;7.30;2.20;;;33.20;21.80;;;;;;20914119;28;20049;-61
2022/06/11 20:59:51;;;;;;;7.38;2.42;;;33.00;21.90;;;;;;20912981;28;20056;-61
2022/06/11 21:09:54;;;;;;;9.80;4.32;;;32.90;22.00;;;;;;20913470;28;20045;-57
2022/06/11 21:19:56;;;;;;;7.63;1.90;;;32.60;22.50;;;;;;20912394;28;20057;-60
2022/06/11 21:30:00;;;;;;;5.03;1.63;;;32.40;22.70;;;;;;20910790;28;20052;-61
2022/06/11 21:40:01;;;;;;;6.25;2.20;;;32.10;22.90;;;;;;20910883;28;20138;-62
2022/06/11 21:50:04;;;;;;;11.80;7.45;;;32.00;23.20;;;;;;20911181;28;20132;-60
2022/06/11 22:00:12;;;;;;;5.55;1.90;;;31.80;23.50;;;;;;20910217;28;20122;-57
2022/06/11 22:10:14;;;;;;;5.05;1.55;;;31.70;23.40;;;;;;20915482;28;20091;-60
2022/06/11 22:20:15;;;;;;;4.15;1.42;;;31.50;23.60;;;;;;20925621;28;20146;-62
2022/06/11 22:30:20;;;;;;;4.90;1.30;;;31.40;23.80;;;;;;20924389;28;20440;-59
2022/06/11 22:40:22;;;;;;;3.15;1.25;;;31.10;23.80;;;;;;20924207;28;20158;-61
2022/06/11 22:50:25;;;;;;;7.00;1.85;;;30.90;24.00;;;;;;20924630;28;20106;-58
2022/06/11 23:00:29;;;;;;;4.95;1.48;;;30.80;24.10;;;;;;20924271;28;20088;-61
2022/06/11 23:10:34;;;;;;;3.22;1.10;;;30.70;24.60;;;;;;20923317;28;20048;-60
2022/06/11 23:20:36;;;;;;;3.13;1.10;;;30.50;24.50;;;;;;20919878;28;20106;-61
2022/06/11 23:30:40;;;;;;;7.32;1.20;;;30.20;24.00;;;;;;20920975;28;20485;-58
2022/06/11 23:40:49;;;;;;;4.28;1.10;;;30.00;23.80;;;;;;20919710;28;20053;-60
2022/06/11 23:50:55;;;;;;;2.72;1.10;;;29.80;23.50;;;;;;20919331;28;20656;-58
